Flight Track Log - Related Links

Times and Time Zones

All times are in EDT time to prevent confusion due to time zone crossing. See the CPT8773 flight status page for this flight to view local times or setup timezone preferences in your user account.

Time Position Orientation Groundspeed Altitude Reporting Facility
EDT Latitude Longitude Course Direction KTS MPH feet Rate Location/Type
Wed 08:53:17 AM 42.9419 -106.5014 308° West 125 144 8,500  Level Salt Lake Center
Wed 08:54:17 AM 42.9700 -106.5153 340° North 122 140 9,400 843 Climbing Salt Lake Center
Wed 08:55:18 AM 42.9983 -106.5328 336° Northwest 121 139 10,200 756 Climbing Salt Lake Center
Wed 08:56:16 AM 43.0278 -106.5450 343° North 119 137 10,900 807 Climbing Denver Center
Wed 08:57:00 AM 43.0974 -106.2913 308° West  Level FlightAware Approximate
Wed 08:57:17 AM 43.0611 -106.5642 337° Northwest 119 137 11,800  Level Denver Center
Wed 08:58:00 AM 43.1231 -106.3362 308° West  Level FlightAware Approximate
Wed 08:58:18 AM 43.0939 -106.5797 341° North 125 144 12,000  Level Denver Center
Wed 08:59:19 AM 43.1325 -106.6014 338° Northwest 149 171 12,000  Level Denver Center
Wed 09:00:20 AM 43.1792 -106.6206 343° North 152 175 12,000  Level Denver Center
Wed 09:01:21 AM 43.2186 -106.6394 341° North 157 181 12,000  Level Denver Center
Wed 09:02:23 AM 43.2600 -106.6667 334° Northwest 155 178 12,000 49 Level Salt Lake Center
Wed 09:03:24 AM 43.3014 -106.6858 341° North 156 180 12,100 49 Climbing Salt Lake Center
Wed 09:04:25 AM 43.3256 -106.7233 312° West 143 165 12,100  Level Salt Lake Center
Wed 09:05:26 AM 43.3478 -106.7697 303° West 136 157 12,100  Level Salt Lake Center
Wed 09:06:27 AM 43.3672 -106.8075 305° West 131 151 12,100  Level Salt Lake Center
Wed 09:07:28 AM 43.3869 -106.8453 306° West 129 148 12,100  Level Salt Lake Center
Wed 09:08:28 AM 43.4111 -106.8911 306° West 130 150 12,100  Level Salt Lake Center
Wed 09:09:29 AM 43.4306 -106.9289 305° West 131 151 12,100  Level Salt Lake Center
Wed 09:10:30 AM 43.4511 -106.9703 304° West 132 152 12,100 -49 Level Salt Lake Center
Wed 09:11:31 AM 43.4733 -107.0133 305° West 133 153 12,000 -49 Descending Salt Lake Center
Wed 09:12:32 AM 43.4978 -107.0561 308° West 138 159 12,000  Level Salt Lake Center
Wed 09:13:33 AM 43.5219 -107.1000 307° West 140 161 12,000  Level Salt Lake Center
Wed 09:14:34 AM 43.5464 -107.1528 303° West 139 160 12,000  Level Salt Lake Center
Wed 09:15:35 AM 43.5700 -107.1939 308° West 139 160 12,000  Level Salt Lake Center
Wed 09:16:36 AM 43.5914 -107.2361 305° West 138 159 12,000  Level Salt Lake Center
Wed 09:17:37 AM 43.6139 -107.2792 306° West 138 159 12,000  Level Salt Lake Center
Wed 09:18:38 AM 43.6375 -107.3239 306° West 138 159 12,000  Level Salt Lake Center
Wed 09:19:39 AM 43.6625 -107.3681 308° West 140 161 12,000  Level Salt Lake Center
Wed 09:20:40 AM 43.6853 -107.4153 304° West 143 165 12,000  Level Salt Lake Center
Wed 09:21:41 AM 43.7106 -107.4622 307° West 146 168 12,000  Level Salt Lake Center
Wed 09:22:42 AM 43.7367 -107.5119 306° West 152 175 12,000  Level Salt Lake Center
Wed 09:23:42 AM 43.7600 -107.5619 303° West 153 176 12,000  Level Salt Lake Center
Wed 09:24:44 AM 43.7853 -107.6097 306° West 153 176 12,000  Level Salt Lake Center
Wed 09:25:45 AM 43.8086 -107.6558 305° West 153 176 12,000  Level Salt Lake Center
Wed 09:26:46 AM 43.8317 -107.7008 305° West 149 171 12,000  Level Salt Lake Center
Wed 09:27:47 AM 43.8597 -107.7556 305° West 148 170 12,000  Level Salt Lake Center
Wed 09:28:48 AM 43.8844 -107.8006 307° West 148 170 12,000  Level Salt Lake Center
Wed 09:29:49 AM 43.9083 -107.8453 307° West 148 170 12,000  Level Salt Lake Center
Wed 09:30:50 AM 43.9303 -107.8928 303° West 148 170 12,000  Level Salt Lake Center
Wed 09:31:51 AM 43.9531 -107.9389 304° West 148 170 12,000  Level Salt Lake Center
Wed 09:32:53 AM 43.9806 -107.9847 310° West 148 170 12,000 -49 Level Salt Lake Center
Wed 09:33:54 AM 44.0122 -108.0289 315° West 153 176 11,900  Descending Salt Lake Center
Wed 09:34:55 AM 44.0422 -108.0733 313° West 155 178 12,000 49 Climbing Salt Lake Center
Wed 09:35:56 AM 44.0697 -108.1192 310° West 155 178 12,000  Level Salt Lake Center
Wed 09:36:57 AM 44.1014 -108.1631 315° West 155 178 12,000 -98 Level Salt Lake Center
Wed 09:37:59 AM 44.1322 -108.2075 314° West 156 180 11,800 -585 Descending Salt Lake Center
Wed 09:39:00 AM 44.1644 -108.2672 307° West 156 180 10,800 -885 Descending Salt Lake Center
Wed 09:40:01 AM 44.1892 -108.3203 303° West 157 181 10,000 -787 Descending Salt Lake Center
Wed 09:41:02 AM 44.2119 -108.3703 302° West 157 181 9,200 -439 Descending Salt Lake Center
Wed 09:42:04 AM 44.2336 -108.4172 303° West 155 178 9,100 -98 Descending Salt Lake Center
Wed 09:43:05 AM 44.2542 -108.4617 303° West 146 168 9,000  Descending Salt Lake Center
Wed 09:44:06 AM 44.2758 -108.5078 303° West 144 166 9,100 98 Climbing Salt Lake Center

Login

Don't have an account? Register now (free) for customized features, flight alerts, and more!